createdAt,value
2023-02-26T00:04:59.752Z,4.93
2023-02-26T00:10:03.134Z,1.65
2023-02-26T00:15:08.435Z,6.50
2023-02-26T00:20:12.325Z,6.03
2023-02-26T00:25:15.061Z,5.40
2023-02-26T00:30:18.095Z,4.75
2023-02-26T00:35:21.374Z,5.00
2023-02-26T00:40:46.082Z,5.03
2023-02-26T00:46:07.395Z,5.20
2023-02-26T00:51:36.457Z,3.50
2023-02-26T00:56:39.248Z,4.80
2023-02-26T01:01:41.867Z,4.32
2023-02-26T01:06:50.685Z,3.77
2023-02-26T01:11:55.552Z,4.97
2023-02-26T01:17:13.133Z,6.00
2023-02-26T01:22:33.751Z,4.82
2023-02-26T01:27:36.643Z,4.82
2023-02-26T01:32:46.748Z,5.53
2023-02-26T01:38:06.685Z,5.65
2023-02-26T01:43:23.186Z,5.27
2023-02-26T01:48:44.776Z,5.70
2023-02-26T01:53:47.415Z,3.90
2023-02-26T01:58:50.913Z,4.27
2023-02-26T02:03:53.918Z,5.38
2023-02-26T02:08:56.580Z,5.63
2023-02-26T02:14:22.607Z,5.63
2023-02-26T02:19:41.393Z,5.38
2023-02-26T02:25:12.667Z,5.97
2023-02-26T02:31:07.466Z,6.43
2023-02-26T02:36:18.444Z,7.27
2023-02-26T02:41:32.088Z,5.95
2023-02-26T02:46:39.119Z,7.90
2023-02-26T02:52:06.022Z,6.27
2023-02-26T02:57:18.022Z,6.88
2023-02-26T03:02:32.353Z,5.80
2023-02-26T03:07:43.566Z,3.13
2023-02-26T03:12:46.441Z,5.25
2023-02-26T03:18:00.927Z,4.63
2023-02-26T03:23:16.927Z,5.00
2023-02-26T03:28:42.838Z,5.30
2023-02-26T03:34:05.115Z,4.93
2023-02-26T03:39:21.040Z,5.60
2023-02-26T03:44:39.661Z,3.77
2023-02-26T03:49:52.522Z,3.55
2023-02-26T03:55:14.593Z,1.57
2023-02-26T04:00:38.325Z,4.55
2023-02-26T04:05:47.918Z,3.05
2023-02-26T04:11:03.856Z,2.20
2023-02-26T04:16:06.889Z,2.08
2023-02-26T04:21:19.179Z,2.37
2023-02-26T04:26:23.278Z,2.00
2023-02-26T04:31:26.166Z,1.85
2023-02-26T04:36:28.992Z,2.10
2023-02-26T04:41:33.796Z,2.95
2023-02-26T04:46:36.398Z,1.00
2023-02-26T04:51:39.119Z,1.48
2023-02-26T04:56:43.270Z,1.52
2023-02-26T05:01:46.099Z,1.83
2023-02-26T05:06:49.005Z,1.60
2023-02-26T05:11:51.769Z,1.50
2023-02-26T05:16:54.364Z,1.80
2023-02-26T05:21:56.981Z,1.60
2023-02-26T05:26:59.628Z,1.37
2023-02-26T05:32:03.475Z,1.58
2023-02-26T05:37:06.341Z,1.83
2023-02-26T05:42:09.315Z,1.83
2023-02-26T05:47:12.241Z,1.42
2023-02-26T05:52:15.006Z,1.30
2023-02-26T05:57:17.554Z,1.35
2023-02-26T06:02:20.385Z,2.63
2023-02-26T06:07:24.676Z,1.13
2023-02-26T06:12:27.534Z,2.15
2023-02-26T06:17:30.184Z,2.53
2023-02-26T06:22:33.070Z,2.28
2023-02-26T06:27:35.731Z,2.30
2023-02-26T06:32:38.647Z,2.63
2023-02-26T06:37:41.345Z,1.25
2023-02-26T06:42:44.120Z,2.03
2023-02-26T06:47:46.903Z,1.73
2023-02-26T06:52:49.544Z,1.70
2023-02-26T06:57:52.424Z,1.20
2023-02-26T07:02:55.021Z,2.22
2023-02-26T07:07:57.948Z,1.90
2023-02-26T07:13:00.640Z,1.83
2023-02-26T07:18:03.298Z,2.33
2023-02-26T07:23:06.191Z,2.47
2023-02-26T07:28:08.908Z,1.30
2023-02-26T07:33:13.618Z,4.57
2023-02-26T07:38:17.583Z,3.45
2023-02-26T07:43:22.226Z,2.53
2023-02-26T07:48:24.973Z,2.78
2023-02-26T07:53:27.638Z,2.70
2023-02-26T07:58:30.491Z,3.40
2023-02-26T08:03:33.707Z,1.45
2023-02-26T08:08:36.404Z,1.90
2023-02-26T08:13:39.123Z,6.28
2023-02-26T08:18:42.251Z,2.28
2023-02-26T08:23:45.012Z,1.60
2023-02-26T08:28:48.566Z,1.10
2023-02-26T08:33:51.294Z,1.73
2023-02-26T08:38:53.977Z,1.58
2023-02-26T08:43:56.851Z,1.90
2023-02-26T08:48:59.685Z,1.27
2023-02-26T08:54:02.701Z,2.03
2023-02-26T08:59:05.396Z,1.90
2023-02-26T09:04:08.063Z,3.22
2023-02-26T09:09:10.871Z,1.90
2023-02-26T09:14:13.566Z,2.33
2023-02-26T09:19:16.520Z,2.72
2023-02-26T09:24:19.459Z,1.93
2023-02-26T09:29:22.254Z,1.20
2023-02-26T09:34:25.025Z,1.80
2023-02-26T09:39:28.084Z,2.40
2023-02-26T09:44:38.065Z,2.45
2023-02-26T09:49:50.002Z,2.47
2023-02-26T09:54:58.951Z,2.28
2023-02-26T10:00:04.705Z,2.10
2023-02-26T10:05:17.296Z,1.87
2023-02-26T10:10:45.266Z,2.45
2023-02-26T10:15:52.850Z,2.17
2023-02-26T10:21:04.056Z,1.45
2023-02-26T10:26:43.868Z,1.50
2023-02-26T10:31:52.607Z,1.57
2023-02-26T10:36:59.316Z,1.80
2023-02-26T10:42:13.427Z,1.90
2023-02-26T10:47:21.891Z,1.67
2023-02-26T10:52:27.360Z,1.90
2023-02-26T10:57:34.756Z,2.13
2023-02-26T11:02:46.680Z,2.38
2023-02-26T11:07:53.868Z,1.47
2023-02-26T11:12:56.719Z,1.25
2023-02-26T11:18:01.641Z,1.70
2023-02-26T11:23:08.101Z,2.90
2023-02-26T11:28:23.622Z,2.42
2023-02-26T11:33:37.094Z,2.20
2023-02-26T11:38:40.556Z,2.30
2023-02-26T11:43:46.228Z,2.72
2023-02-26T11:48:50.752Z,2.63
2023-02-26T11:53:56.157Z,2.50
2023-02-26T11:59:11.068Z,1.80
2023-02-26T12:04:15.197Z,2.10
2023-02-26T12:09:18.845Z,2.15
2023-02-26T12:14:30.736Z,2.47
2023-02-26T12:19:46.520Z,2.03
2023-02-26T12:24:56.207Z,1.70
2023-02-26T12:30:25.091Z,2.13
2023-02-26T12:36:17.898Z,2.10
2023-02-26T12:41:46.437Z,1.57
2023-02-26T12:47:18.312Z,2.35
2023-02-26T12:52:20.942Z,1.57
2023-02-26T12:57:55.253Z,1.70
2023-02-26T13:03:19.597Z,1.60
2023-02-26T13:08:40.284Z,1.80
2023-02-26T13:13:43.276Z,1.90
2023-02-26T13:18:52.085Z,2.00
2023-02-26T13:24:15.724Z,1.70
2023-02-26T13:29:32.885Z,1.02
2023-02-26T13:34:59.286Z,2.07
2023-02-26T13:40:26.092Z,2.63
2023-02-26T13:46:01.218Z,2.50
2023-02-26T13:51:29.931Z,2.00
2023-02-26T13:56:33.925Z,2.33
2023-02-26T14:01:55.894Z,2.80
2023-02-26T14:07:10.888Z,2.20
2023-02-26T14:12:13.659Z,2.67
2023-02-26T14:17:19.066Z,2.45
2023-02-26T14:22:42.101Z,2.65
2023-02-26T14:27:47.551Z,2.20
2023-02-26T14:32:54.345Z,3.47
2023-02-26T14:37:59.582Z,3.20
2023-02-26T14:43:05.972Z,2.60
2023-02-26T14:48:16.812Z,2.58
2023-02-26T14:53:46.049Z,2.13
2023-02-26T14:59:10.794Z,2.53
2023-02-26T15:04:38.454Z,2.03
2023-02-26T15:09:57.642Z,3.00
2023-02-26T15:15:45.094Z,2.60
2023-02-26T15:21:09.435Z,2.43
2023-02-26T15:26:20.039Z,2.45
2023-02-26T15:31:31.729Z,2.87
2023-02-26T15:36:34.798Z,2.97
2023-02-26T15:41:39.648Z,2.80
2023-02-26T15:46:46.294Z,2.17
2023-02-26T15:51:49.527Z,2.25
2023-02-26T15:56:52.824Z,2.57
2023-02-26T16:01:56.005Z,4.03
2023-02-26T16:06:59.199Z,3.30
2023-02-26T16:12:09.474Z,2.60
2023-02-26T16:17:20.075Z,2.40
2023-02-26T16:22:50.527Z,3.20
2023-02-26T16:28:01.315Z,2.53
2023-02-26T16:33:09.892Z,2.28
2023-02-26T16:38:32.662Z,2.70
2023-02-26T16:43:50.227Z,2.60
2023-02-26T16:49:03.179Z,3.57
2023-02-26T16:54:15.415Z,4.47
2023-02-26T16:59:19.937Z,3.63
2023-02-26T17:04:32.149Z,3.60
2023-02-26T17:09:45.182Z,2.42
2023-02-26T17:14:56.962Z,2.87
2023-02-26T17:19:59.907Z,2.25
2023-02-26T17:25:02.572Z,0.82
2023-02-26T17:30:07.283Z,2.33
2023-02-26T17:35:12.732Z,2.90
2023-02-26T17:40:20.696Z,2.40
2023-02-26T17:45:23.930Z,2.25
2023-02-26T17:50:41.736Z,2.65
2023-02-26T17:55:46.008Z,2.33
2023-02-26T18:00:53.319Z,2.35
2023-02-26T18:05:57.686Z,2.03
2023-02-26T18:11:02.152Z,2.78
2023-02-26T18:16:06.733Z,2.47
2023-02-26T18:21:09.426Z,3.00
2023-02-26T18:26:15.486Z,3.03
2023-02-26T18:31:20.011Z,3.07
2023-02-26T18:36:34.838Z,2.80
2023-02-26T18:41:38.247Z,2.03
2023-02-26T18:46:42.394Z,1.80
2023-02-26T18:51:45.473Z,3.33
2023-02-26T18:56:48.423Z,4.87
2023-02-26T19:01:51.365Z,4.18
2023-02-26T19:06:54.126Z,3.40
2023-02-26T19:11:57.779Z,3.13
2023-02-26T19:17:00.721Z,4.25
2023-02-26T19:22:03.731Z,3.87
2023-02-26T19:27:06.535Z,4.63
2023-02-26T19:32:09.534Z,3.92
2023-02-26T19:37:12.648Z,3.70
2023-02-26T19:42:15.753Z,3.95
2023-02-26T19:47:18.708Z,2.93
2023-02-26T19:52:21.527Z,3.53
2023-02-26T19:57:24.517Z,4.18
2023-02-26T20:02:27.380Z,4.30
2023-02-26T20:07:30.068Z,3.63
2023-02-26T20:12:32.866Z,3.80
2023-02-26T20:17:35.656Z,4.47
2023-02-26T20:22:38.467Z,3.25
2023-02-26T20:27:41.278Z,3.53
2023-02-26T20:32:44.323Z,3.90
2023-02-26T20:37:47.562Z,4.20
2023-02-26T20:42:50.397Z,4.18
2023-02-26T20:47:53.468Z,6.07
2023-02-26T20:52:56.547Z,5.77
2023-02-26T20:57:59.218Z,5.65
2023-02-26T21:03:02.227Z,4.83
2023-02-26T21:08:05.539Z,4.50
2023-02-26T21:13:09.616Z,4.38
2023-02-26T21:18:12.366Z,3.60
2023-02-26T21:23:15.201Z,3.95
2023-02-26T21:28:17.964Z,3.20
2023-02-26T21:33:20.896Z,4.30
2023-02-26T21:38:23.960Z,4.47
2023-02-26T21:43:26.714Z,4.13
2023-02-26T21:48:29.722Z,3.28
2023-02-26T21:53:32.430Z,3.93
2023-02-26T21:58:35.048Z,4.63
2023-02-26T22:03:38.862Z,3.58
2023-02-26T22:08:41.473Z,3.50
2023-02-26T22:13:44.477Z,4.45
2023-02-26T22:18:47.474Z,4.43
2023-02-26T22:23:50.888Z,4.10
2023-02-26T22:28:54.641Z,3.63
2023-02-26T22:33:58.081Z,4.33
2023-02-26T22:39:00.703Z,5.25
2023-02-26T22:44:03.739Z,4.40
2023-02-26T22:49:06.544Z,4.82
2023-02-26T22:54:09.345Z,6.28
2023-02-26T22:59:11.966Z,5.80
2023-02-26T23:04:14.727Z,6.00
2023-02-26T23:09:17.366Z,9.13
2023-02-26T23:14:20.283Z,9.10
2023-02-26T23:19:23.113Z,8.52
2023-02-26T23:24:25.901Z,6.87
2023-02-26T23:29:28.766Z,6.53
2023-02-26T23:34:31.350Z,9.77
2023-02-26T23:39:33.984Z,8.13
2023-02-26T23:44:36.802Z,6.35
2023-02-26T23:49:39.370Z,6.43
2023-02-26T23:54:42.316Z,6.47
2023-02-26T23:59:44.965Z,6.50
